METAR Data
IDs: Format: Raw Decoded Include TAF

Data at: 1159 UTC 15 Dec 2018

PAKW 151053Z AUTO 05006KT 10SM CLR M01/M04 A2954 RMK AO2 SLP004 T10061039 TSNO
PAKW 150953Z AUTO 00000KT 10SM CLR 00/M04 A2953 RMK SLP002 T00001044 TSNO VIA AUTODIAL
PAKW 150853Z AUTO 05005KT 10SM CLR M01/M04 A2952 RMK AO2 SLPNO I3000 T10111044 400781028 51026 TSNO
PAKW 150653Z AUTO 00000KT 10SM CLR M02/M04 A2948 RMK AO2 SLP984 I1000 T10171044 TSNO
PAKW 150553Z AUTO 06005KT 10SM CLR M02/M04 A2944 RMK AO2 SLP969 I1000 I6000 T10171044 10028 21017 53018 TSNO
PAKW 150453Z AUTO 04003KT 10SM CLR M01/M04 A2941 RMK SLP960 I1000 T10111039 TSNO VIA AUTODIAL
PAKW 150353Z AUTO 34003KT 10SM CLR 01/M03 A2940 RMK AO2 SLP958 I1000 T00061028 TSNO
PAKW 150253Z AUTO 03004KT 10SM CLR 00/M03 A2938 RMK AO2 SLP951 T00001033 51016 TSNO
PAKW 150153Z AUTO 04005KT 10SM CLR 00/M03 A2938 RMK SLP948 T00001028 TSNO VIA AUTODIAL
PAKW 150053Z AUTO 00000KT 10SM CLR 02/M03 A2936 RMK SLP944 T00171028 TSNO VIA AUTODIAL
PAKW 142353Z AUTO VRB06KT 10SM CLR 01/M02 A2934 RMK AO2 SLP935 T00061022 56009 TSNO
PAKW 142253Z AUTO VRB04KT 10SM CLR 03/M02 A2934 RMK AO2 SLP937 T00281022 TSNO
PAKW 142153Z AUTO VRB06KT 10SM CLR 02/M02 A2934 RMK SLP936 T00221017 TSNO VIA AUTODIAL
PAKW 142053Z AUTO VRB05KT CLR A2936 RMK AO2 SLPNO 56007 TSNO $
PAKW 141953Z AUTO 04008G14KT 340V050 BKN028 A2936 RMK AO2 SLPNO TSNO $
PAKW 141853Z AUTO VRB03KT 10SM CLR 06/M01 A2937 RMK AO2 SLP948 T00561011 TSNO
PAKW 141753Z AUTO VRB03KT 10SM FEW030 03/M02 A2938 RMK SLP951 I6000 T00281017 10056 21011 56022 TSNO VIA AUTODIAL
PAKW 141653Z AUTO VRB05G17KT 10SM CLR 02/M02 A2941 RMK SLP960 T00171017 TSNO VIA AUTODIAL
PAKW 141553Z AUTO 05010KT 10SM SCT030 BKN036 03/M02 A2941 RMK AO2 SLP960 T00331017 TSNO
PAKW 141542Z AUTO VRB05G19KT 10SM SCT030 BKN036 02/M01 A2942 RMK AO2 T00221011 TSNO
PAKW 141453Z AUTO 05008KT 10SM FEW022 BKN030 02/M01 A2945 RMK AO2 SLP973 I1000 I3000 T00171011 58028 TSNO
PAKW 141353Z AUTO VRB03KT 10SM CLR 03/M02 A2948 RMK AO2 SLP982 I1000 T00281017 TSNO
PAKW 141253Z AUTO 00000KT 10SM CLR M01/M03 A2952 RMK AO2 SLP996 I1000 T10061033 TSNO
PAKW 141153Z AUTO 00000KT 10SM CLR M01/M03 A2953 RMK SLP002 70020 I1000 I6000 T10061028 10056 21006 58023 TSNO VIA AUTODIAL
PAKW 141053Z AUTO 05004KT 10SM CLR 00/M02 A2957 RMK SLP014 I1000 T00001022 TSNO VIA AUTODIAL
PAKW 141022Z AUTO 00000KT 10SM FEW003 01/M02 A2958 RMK AO2 T00061022 TSNO
PAKW 140953Z AUTO 00000KT 10SM CLR 01/M02 A2959 RMK AO2 SLP021 I1000 T00061017 TSNO
PAKW 140918Z AUTO 00000KT 10SM SCT001 01/M02 A2960 RMK AO2 T00061017 TSNO
PAKW 140904Z AUTO 03004KT 3SM BR BKN001 00/M02 A2960 RMK AO2 T00001022 TSNO
PAKW 140902Z AUTO 03003KT 1 1/2SM BR OVC001 00/M02 A2960 RMK AO2 VIS 1/2V5 T00001022 TSNO
PAKW 140853Z AUTO 00000KT 1/2SM FG VV001 01/M02 A2960 RMK AO2 SLP025 I3000 T00061017 401440000 58012 TSNO
PAKW 140842Z AUTO 00000KT 1SM BR VV001 01/M02 A2961 RMK AO2 T00061017 TSNO
PAKW 140753Z AUTO 00000KT 2 1/2SM BR BKN001 01/M02 A2962 RMK AO2 VIS 1 3/4V4 SLP032 I1000 T00061017 TSNO
PAKW 140746Z AUTO 00000KT 2SM BR BKN001 01/M02 A2962 RMK AO2 I1000 T00061017 TSNO
PAKW 140739Z AUTO 00000KT 1SM BR VV001 00/M02 A2961 RMK AO2 I1000 T00001017 TSNO
PAKW 140729Z AUTO 05004KT 2 1/2SM BR SCT001 01/M02 A2962 RMK AO2 I1000 T00061017 TSNO
PAKW 140653Z AUTO 00000KT 10SM CLR 01/M01 A2963 RMK AO2 SLP033 I1000 T00111011 TSNO
PAKW 140553Z AUTO 00000KT 10SM CLR 02/M01 A2964 RMK AO2 SLP037 60002 T00171011 10128 20017 58004 TSNO
PAKW 140453Z AUTO 20003KT 10SM CLR 04/M01 A2965 RMK SLP040 T00391006 TSNO VIA AUTODIAL
PAKW 140411Z AUTO 00000KT 10SM FEW015 FEW020 SCT055 07/00 A2965 RMK T00670000 TSNO VIA AUTODIAL
PAKW 140403Z AUTO 00000KT 10SM SCT018 BKN023 07/01 A2965 RMK AO2 T00670006 TSNO
PAKW 140353Z AUTO 00000KT 10SM SCT020 SCT026 BKN060 04/01 A2965 RMK AO2 RAB18E28 SLP042 P0002 T00390006 TSNO
PAKW 140328Z AUTO 00000KT 9SM BKN018 BKN027 OVC060 04/01 A2966 RMK AO2 RAB18E28 P0002 T00390011 TSNO
PAKW 140317Z AUTO VRB05KT 2 1/2SM HZ SCT018 BKN027 BKN040 06/01 A2966 RMK AO2 T00560011 TSNO
PAKW 140253Z AUTO 18006KT 10SM CLR 11/00 A2965 RMK AO2 SLP041 T01060000 50002 TSNO
PAKW 140153Z AUTO 14004KT 10SM FEW034 BKN060 OVC070 06/01 A2967 RMK SLP048 T00560006 TSNO VIA AUTODIAL
PAKW 140053Z AUTO 00000KT 10SM FEW017 SCT025 BKN035 06/01 A2967 RMK AO2 SLP048 T00610011 TSNO